sensor_id;sensor_type;location;lat;lon;timestamp;temperature;humidity
40676;DHT22;26359;48.750;9.314;2022-10-23T00:01:16;13.10;99.90
40676;DHT22;26359;48.750;9.314;2022-10-23T00:03:43;13.10;99.90
40676;DHT22;26359;48.750;9.314;2022-10-23T00:06:10;13.00;99.90
40676;DHT22;26359;48.750;9.314;2022-10-23T00:08:37;13.00;99.90
40676;DHT22;26359;48.750;9.314;2022-10-23T00:11:08;13.00;99.90
40676;DHT22;26359;48.750;9.314;2022-10-23T00:13:33;13.00;99.90
40676;DHT22;26359;48.750;9.314;2022-10-23T00:15:59;13.00;99.90
40676;DHT22;26359;48.750;9.314;2022-10-23T00:18:24;13.00;99.90
40676;DHT22;26359;48.750;9.314;2022-10-23T00:20:50;13.00;99.90
40676;DHT22;26359;48.750;9.314;2022-10-23T00:23:16;13.00;99.90
40676;DHT22;26359;48.750;9.314;2022-10-23T00:25:42;12.90;99.90
40676;DHT22;26359;48.750;9.314;2022-10-23T00:28:07;12.80;99.90
40676;DHT22;26359;48.750;9.314;2022-10-23T00:30:33;12.80;99.90
40676;DHT22;26359;48.750;9.314;2022-10-23T00:32:58;12.80;99.90
40676;DHT22;26359;48.750;9.314;2022-10-23T00:35:24;12.80;99.90
40676;DHT22;26359;48.750;9.314;2022-10-23T00:37:50;12.90;99.90
40676;DHT22;26359;48.750;9.314;2022-10-23T00:40:16;12.90;99.90
40676;DHT22;26359;48.750;9.314;2022-10-23T00:42:41;12.80;99.90
40676;DHT22;26359;48.750;9.314;2022-10-23T00:45:11;12.70;99.90
40676;DHT22;26359;48.750;9.314;2022-10-23T00:47:37;12.60;99.90
40676;DHT22;26359;48.750;9.314;2022-10-23T00:50:04;12.60;99.90
40676;DHT22;26359;48.750;9.314;2022-10-23T00:52:29;12.60;99.90
40676;DHT22;26359;48.750;9.314;2022-10-23T00:54:56;12.60;99.90
40676;DHT22;26359;48.750;9.314;2022-10-23T00:57:22;12.70;99.90
40676;DHT22;26359;48.750;9.314;2022-10-23T00:59:48;12.60;99.90
40676;DHT22;26359;48.750;9.314;2022-10-23T01:02:13;12.70;99.90
40676;DHT22;26359;48.750;9.314;2022-10-23T01:04:39;12.70;99.90
40676;DHT22;26359;48.750;9.314;2022-10-23T01:12:41;12.60;99.90
40676;DHT22;26359;48.750;9.314;2022-10-23T01:15:14;12.60;99.90
40676;DHT22;26359;48.750;9.314;2022-10-23T01:20:23;12.60;99.90
40676;DHT22;26359;48.750;9.314;2022-10-23T01:23:21;12.60;99.90
40676;DHT22;26359;48.750;9.314;2022-10-23T01:28:38;12.50;99.90
40676;DHT22;26359;48.750;9.314;2022-10-23T01:31:12;12.60;99.90
40676;DHT22;26359;48.750;9.314;2022-10-23T01:33:43;12.50;99.90
40676;DHT22;26359;48.750;9.314;2022-10-23T01:36:14;12.50;99.90
40676;DHT22;26359;48.750;9.314;2022-10-23T01:41:48;12.50;99.90
40676;DHT22;26359;48.750;9.314;2022-10-23T01:44:32;12.40;99.90
40676;DHT22;26359;48.750;9.314;2022-10-23T01:47:01;12.30;99.90
40676;DHT22;26359;48.750;9.314;2022-10-23T01:49:29;12.30;99.90
40676;DHT22;26359;48.750;9.314;2022-10-23T01:51:59;12.30;99.90
40676;DHT22;26359;48.750;9.314;2022-10-23T01:54:28;12.30;99.90
40676;DHT22;26359;48.750;9.314;2022-10-23T01:56:57;12.30;99.90
40676;DHT22;26359;48.750;9.314;2022-10-23T01:59:26;12.30;99.90
40676;DHT22;26359;48.750;9.314;2022-10-23T02:01:55;12.30;99.90
40676;DHT22;26359;48.750;9.314;2022-10-23T02:04:33;12.40;99.90
40676;DHT22;26359;48.750;9.314;2022-10-23T02:07:00;12.40;99.90
40676;DHT22;26359;48.750;9.314;2022-10-23T02:09:25;12.30;99.90
40676;DHT22;26359;48.750;9.314;2022-10-23T02:12:06;12.40;99.90
40676;DHT22;26359;48.750;9.314;2022-10-23T02:17:48;12.40;99.90
40676;DHT22;26359;48.750;9.314;2022-10-23T02:20:22;12.30;99.90
40676;DHT22;26359;48.750;9.314;2022-10-23T02:22:56;12.30;99.90
40676;DHT22;26359;48.750;9.314;2022-10-23T02:25:31;12.30;99.90
40676;DHT22;26359;48.750;9.314;2022-10-23T02:28:00;12.30;99.90
40676;DHT22;26359;48.750;9.314;2022-10-23T02:30:28;12.20;99.90
40676;DHT22;26359;48.750;9.314;2022-10-23T02:32:56;12.20;99.90
40676;DHT22;26359;48.750;9.314;2022-10-23T02:35:23;12.30;99.90
40676;DHT22;26359;48.750;9.314;2022-10-23T02:37:58;12.30;99.90
40676;DHT22;26359;48.750;9.314;2022-10-23T02:40:33;12.20;99.90
40676;DHT22;26359;48.750;9.314;2022-10-23T02:43:14;12.20;99.90
40676;DHT22;26359;48.750;9.314;2022-10-23T02:46:01;12.20;99.90
40676;DHT22;26359;48.750;9.314;2022-10-23T02:48:43;12.20;99.90
40676;DHT22;26359;48.750;9.314;2022-10-23T02:51:30;12.20;99.90
40676;DHT22;26359;48.750;9.314;2022-10-23T02:54:09;12.20;99.90
40676;DHT22;26359;48.750;9.314;2022-10-23T02:56:41;12.10;99.90
40676;DHT22;26359;48.750;9.314;2022-10-23T02:59:21;12.00;99.90
40676;DHT22;26359;48.750;9.314;2022-10-23T03:02:23;12.10;99.90
40676;DHT22;26359;48.750;9.314;2022-10-23T03:04:47;12.10;99.90
40676;DHT22;26359;48.750;9.314;2022-10-23T03:07:13;12.10;99.90
40676;DHT22;26359;48.750;9.314;2022-10-23T03:09:39;12.10;99.90
40676;DHT22;26359;48.750;9.314;2022-10-23T03:12:04;12.00;99.90
40676;DHT22;26359;48.750;9.314;2022-10-23T03:14:30;12.00;99.90
40676;DHT22;26359;48.750;9.314;2022-10-23T03:16:55;12.10;99.90
40676;DHT22;26359;48.750;9.314;2022-10-23T03:19:21;12.20;99.90
40676;DHT22;26359;48.750;9.314;2022-10-23T03:21:46;12.20;99.90
40676;DHT22;26359;48.750;9.314;2022-10-23T03:24:12;12.20;99.90
40676;DHT22;26359;48.750;9.314;2022-10-23T03:26:38;12.10;99.90
40676;DHT22;26359;48.750;9.314;2022-10-23T03:29:03;12.20;99.90
40676;DHT22;26359;48.750;9.314;2022-10-23T03:31:29;12.10;99.90
40676;DHT22;26359;48.750;9.314;2022-10-23T03:33:54;12.10;99.90
40676;DHT22;26359;48.750;9.314;2022-10-23T03:36:20;12.10;99.90
40676;DHT22;26359;48.750;9.314;2022-10-23T03:38:45;12.10;99.90
40676;DHT22;26359;48.750;9.314;2022-10-23T03:41:11;12.20;99.90
40676;DHT22;26359;48.750;9.314;2022-10-23T03:43:36;12.20;99.90
40676;DHT22;26359;48.750;9.314;2022-10-23T03:46:02;12.30;99.90
40676;DHT22;26359;48.750;9.314;2022-10-23T03:48:33;12.20;99.90
40676;DHT22;26359;48.750;9.314;2022-10-23T03:51:03;12.30;99.90
40676;DHT22;26359;48.750;9.314;2022-10-23T03:53:28;12.30;99.90
40676;DHT22;26359;48.750;9.314;2022-10-23T03:55:54;12.20;99.90
40676;DHT22;26359;48.750;9.314;2022-10-23T03:58:19;12.20;99.90
40676;DHT22;26359;48.750;9.314;2022-10-23T04:00:45;12.20;99.90
40676;DHT22;26359;48.750;9.314;2022-10-23T04:03:10;12.20;99.90
40676;DHT22;26359;48.750;9.314;2022-10-23T04:05:36;12.20;99.90
40676;DHT22;26359;48.750;9.314;2022-10-23T04:08:02;12.20;99.90
40676;DHT22;26359;48.750;9.314;2022-10-23T04:10:27;12.10;99.90
40676;DHT22;26359;48.750;9.314;2022-10-23T04:12:53;12.10;99.90
40676;DHT22;26359;48.750;9.314;2022-10-23T04:15:21;12.20;99.90
40676;DHT22;26359;48.750;9.314;2022-10-23T04:17:46;12.20;99.90
40676;DHT22;26359;48.750;9.314;2022-10-23T04:20:12;12.20;99.90
40676;DHT22;26359;48.750;9.314;2022-10-23T04:22:37;12.20;99.90
40676;DHT22;26359;48.750;9.314;2022-10-23T04:25:03;12.10;99.90
40676;DHT22;26359;48.750;9.314;2022-10-23T04:27:29;12.10;99.90
40676;DHT22;26359;48.750;9.314;2022-10-23T04:29:54;12.10;99.90
40676;DHT22;26359;48.750;9.314;2022-10-23T04:32:20;12.10;99.90
40676;DHT22;26359;48.750;9.314;2022-10-23T04:34:46;12.10;99.90
40676;DHT22;26359;48.750;9.314;2022-10-23T04:37:11;12.10;99.90
40676;DHT22;26359;48.750;9.314;2022-10-23T04:39:37;12.10;99.90
40676;DHT22;26359;48.750;9.314;2022-10-23T04:42:02;12.10;99.90
40676;DHT22;26359;48.750;9.314;2022-10-23T04:44:28;12.10;99.90
40676;DHT22;26359;48.750;9.314;2022-10-23T04:46:53;12.10;99.90
40676;DHT22;26359;48.750;9.314;2022-10-23T04:49:19;12.20;99.90
40676;DHT22;26359;48.750;9.314;2022-10-23T04:51:47;12.20;99.90
40676;DHT22;26359;48.750;9.314;2022-10-23T04:54:13;12.20;99.90
40676;DHT22;26359;48.750;9.314;2022-10-23T04:56:39;12.20;99.90
40676;DHT22;26359;48.750;9.314;2022-10-23T04:59:04;12.20;99.90
40676;DHT22;26359;48.750;9.314;2022-10-23T05:01:30;12.20;99.90
40676;DHT22;26359;48.750;9.314;2022-10-23T05:03:55;12.20;99.90
40676;DHT22;26359;48.750;9.314;2022-10-23T05:06:21;12.20;99.90
40676;DHT22;26359;48.750;9.314;2022-10-23T05:08:47;12.20;99.90
40676;DHT22;26359;48.750;9.314;2022-10-23T05:11:12;12.20;99.90
40676;DHT22;26359;48.750;9.314;2022-10-23T05:13:38;12.10;99.90
40676;DHT22;26359;48.750;9.314;2022-10-23T05:16:03;12.20;99.90
40676;DHT22;26359;48.750;9.314;2022-10-23T05:18:35;12.20;99.90
40676;DHT22;26359;48.750;9.314;2022-10-23T05:21:20;12.20;99.90
40676;DHT22;26359;48.750;9.314;2022-10-23T05:23:46;12.20;99.90
40676;DHT22;26359;48.750;9.314;2022-10-23T05:26:12;12.20;99.90
40676;DHT22;26359;48.750;9.314;2022-10-23T05:28:37;12.20;99.90
40676;DHT22;26359;48.750;9.314;2022-10-23T05:31:04;12.20;99.90
40676;DHT22;26359;48.750;9.314;2022-10-23T05:33:31;12.20;99.90
40676;DHT22;26359;48.750;9.314;2022-10-23T05:35:57;12.20;99.90
40676;DHT22;26359;48.750;9.314;2022-10-23T05:38:25;12.10;99.90
40676;DHT22;26359;48.750;9.314;2022-10-23T05:40:52;12.20;99.90
40676;DHT22;26359;48.750;9.314;2022-10-23T05:43:18;12.10;99.90
40676;DHT22;26359;48.750;9.314;2022-10-23T05:45:43;12.10;99.90
40676;DHT22;26359;48.750;9.314;2022-10-23T05:48:09;12.10;99.90
40676;DHT22;26359;48.750;9.314;2022-10-23T05:50:35;12.10;99.90
40676;DHT22;26359;48.750;9.314;2022-10-23T05:53:01;11.90;99.90
40676;DHT22;26359;48.750;9.314;2022-10-23T05:55:27;11.90;99.90
40676;DHT22;26359;48.750;9.314;2022-10-23T05:57:52;11.80;99.90
40676;DHT22;26359;48.750;9.314;2022-10-23T06:00:18;11.80;99.90
40676;DHT22;26359;48.750;9.314;2022-10-23T06:02:43;11.70;99.90
40676;DHT22;26359;48.750;9.314;2022-10-23T06:05:09;11.80;99.90
40676;DHT22;26359;48.750;9.314;2022-10-23T06:07:35;11.80;99.90
40676;DHT22;26359;48.750;9.314;2022-10-23T06:10:00;11.60;99.90
40676;DHT22;26359;48.750;9.314;2022-10-23T06:12:26;11.60;99.90
40676;DHT22;26359;48.750;9.314;2022-10-23T06:14:51;11.60;99.90
40676;DHT22;26359;48.750;9.314;2022-10-23T06:17:17;11.70;99.90
40676;DHT22;26359;48.750;9.314;2022-10-23T06:19:43;11.50;99.90
40676;DHT22;26359;48.750;9.314;2022-10-23T06:22:09;11.50;99.90
40676;DHT22;26359;48.750;9.314;2022-10-23T06:24:34;11.50;99.90
40676;DHT22;26359;48.750;9.314;2022-10-23T06:27:00;11.50;99.90
40676;DHT22;26359;48.750;9.314;2022-10-23T06:29:25;11.60;99.90
40676;DHT22;26359;48.750;9.314;2022-10-23T06:31:51;11.40;99.90
40676;DHT22;26359;48.750;9.314;2022-10-23T06:34:16;11.40;99.90
40676;DHT22;26359;48.750;9.314;2022-10-23T06:36:42;11.40;99.90
40676;DHT22;26359;48.750;9.314;2022-10-23T06:39:08;11.40;99.90
40676;DHT22;26359;48.750;9.314;2022-10-23T06:41:34;11.40;99.90
40676;DHT22;26359;48.750;9.314;2022-10-23T06:44:00;11.50;99.90
40676;DHT22;26359;48.750;9.314;2022-10-23T06:46:26;11.50;99.90
40676;DHT22;26359;48.750;9.314;2022-10-23T06:48:54;11.60;99.90
40676;DHT22;26359;48.750;9.314;2022-10-23T06:51:19;11.60;99.90
40676;DHT22;26359;48.750;9.314;2022-10-23T06:53:46;11.70;99.90
40676;DHT22;26359;48.750;9.314;2022-10-23T06:56:12;11.70;99.90
40676;DHT22;26359;48.750;9.314;2022-10-23T06:58:38;11.70;99.90
40676;DHT22;26359;48.750;9.314;2022-10-23T07:01:06;11.70;99.90
40676;DHT22;26359;48.750;9.314;2022-10-23T07:03:33;11.70;99.90
40676;DHT22;26359;48.750;9.314;2022-10-23T07:06:04;11.80;99.90
40676;DHT22;26359;48.750;9.314;2022-10-23T07:08:30;11.80;99.90
40676;DHT22;26359;48.750;9.314;2022-10-23T07:10:56;11.90;99.90
40676;DHT22;26359;48.750;9.314;2022-10-23T07:13:22;11.90;99.90
40676;DHT22;26359;48.750;9.314;2022-10-23T07:15:49;12.00;99.90
40676;DHT22;26359;48.750;9.314;2022-10-23T07:18:15;11.90;99.90
40676;DHT22;26359;48.750;9.314;2022-10-23T07:20:41;11.90;99.90
40676;DHT22;26359;48.750;9.314;2022-10-23T07:23:08;11.90;99.90
40676;DHT22;26359;48.750;9.314;2022-10-23T07:25:35;11.90;99.90
40676;DHT22;26359;48.750;9.314;2022-10-23T07:28:00;11.90;99.90
40676;DHT22;26359;48.750;9.314;2022-10-23T07:30:26;12.00;99.90
40676;DHT22;26359;48.750;9.314;2022-10-23T07:32:51;12.10;99.90
40676;DHT22;26359;48.750;9.314;2022-10-23T07:35:17;12.10;99.90
40676;DHT22;26359;48.750;9.314;2022-10-23T07:37:42;12.10;99.90
40676;DHT22;26359;48.750;9.314;2022-10-23T07:40:08;12.20;99.90
40676;DHT22;26359;48.750;9.314;2022-10-23T07:42:34;12.20;99.90
40676;DHT22;26359;48.750;9.314;2022-10-23T07:45:00;12.20;99.90
40676;DHT22;26359;48.750;9.314;2022-10-23T07:47:25;12.20;99.90
40676;DHT22;26359;48.750;9.314;2022-10-23T07:49:51;12.10;99.90
40676;DHT22;26359;48.750;9.314;2022-10-23T07:52:16;12.20;99.90
40676;DHT22;26359;48.750;9.314;2022-10-23T07:54:42;12.20;99.90
40676;DHT22;26359;48.750;9.314;2022-10-23T07:57:09;12.30;99.90
40676;DHT22;26359;48.750;9.314;2022-10-23T07:59:36;12.30;99.90
40676;DHT22;26359;48.750;9.314;2022-10-23T08:02:02;12.40;99.90
40676;DHT22;26359;48.750;9.314;2022-10-23T08:04:27;12.40;99.90
40676;DHT22;26359;48.750;9.314;2022-10-23T08:06:53;12.50;99.90
40676;DHT22;26359;48.750;9.314;2022-10-23T08:09:20;12.50;99.90
40676;DHT22;26359;48.750;9.314;2022-10-23T08:11:46;12.50;99.90
40676;DHT22;26359;48.750;9.314;2022-10-23T08:14:12;12.60;99.90
40676;DHT22;26359;48.750;9.314;2022-10-23T08:16:40;12.60;99.90
40676;DHT22;26359;48.750;9.314;2022-10-23T08:19:06;12.60;99.90
40676;DHT22;26359;48.750;9.314;2022-10-23T08:21:32;12.60;99.90
40676;DHT22;26359;48.750;9.314;2022-10-23T08:23:59;12.70;99.90
40676;DHT22;26359;48.750;9.314;2022-10-23T08:26:26;12.80;99.90
40676;DHT22;26359;48.750;9.314;2022-10-23T08:28:54;12.80;99.90
40676;DHT22;26359;48.750;9.314;2022-10-23T08:31:20;12.90;99.90
40676;DHT22;26359;48.750;9.314;2022-10-23T08:33:46;13.00;99.90
40676;DHT22;26359;48.750;9.314;2022-10-23T08:36:25;13.10;99.90
40676;DHT22;26359;48.750;9.314;2022-10-23T08:38:55;13.20;99.90
40676;DHT22;26359;48.750;9.314;2022-10-23T08:41:29;13.40;99.90
40676;DHT22;26359;48.750;9.314;2022-10-23T08:44:25;13.50;99.90
40676;DHT22;26359;48.750;9.314;2022-10-23T08:52:10;13.60;99.90
40676;DHT22;26359;48.750;9.314;2022-10-23T08:57:21;13.60;99.90
40676;DHT22;26359;48.750;9.314;2022-10-23T08:59:51;13.70;99.90
40676;DHT22;26359;48.750;9.314;2022-10-23T09:02:22;13.80;99.90
40676;DHT22;26359;48.750;9.314;2022-10-23T09:04:51;13.80;99.90
40676;DHT22;26359;48.750;9.314;2022-10-23T09:07:31;13.90;99.90
40676;DHT22;26359;48.750;9.314;2022-10-23T09:12:42;14.10;99.90
40676;DHT22;26359;48.750;9.314;2022-10-23T09:15:21;14.40;99.90
40676;DHT22;26359;48.750;9.314;2022-10-23T09:17:54;15.00;99.90
40676;DHT22;26359;48.750;9.314;2022-10-23T09:20:22;15.80;99.90
40676;DHT22;26359;48.750;9.314;2022-10-23T09:23:31;16.50;99.90
40676;DHT22;26359;48.750;9.314;2022-10-23T09:25:40;17.20;99.90
40676;DHT22;26359;48.750;9.314;2022-10-23T09:28:10;17.80;99.90
40676;DHT22;26359;48.750;9.314;2022-10-23T09:30:41;18.20;99.90
40676;DHT22;26359;48.750;9.314;2022-10-23T09:33:20;18.60;99.90
40676;DHT22;26359;48.750;9.314;2022-10-23T09:36:06;19.00;99.90
40676;DHT22;26359;48.750;9.314;2022-10-23T09:38:37;19.30;99.90
40676;DHT22;26359;48.750;9.314;2022-10-23T09:41:37;19.30;99.90
40676;DHT22;26359;48.750;9.314;2022-10-23T09:44:19;19.70;99.90
40676;DHT22;26359;48.750;9.314;2022-10-23T09:46:47;20.00;99.90
40676;DHT22;26359;48.750;9.314;2022-10-23T09:49:30;20.10;99.90
40676;DHT22;26359;48.750;9.314;2022-10-23T09:54:42;20.40;99.90
40676;DHT22;26359;48.750;9.314;2022-10-23T09:59:59;20.60;99.90
40676;DHT22;26359;48.750;9.314;2022-10-23T10:02:34;20.40;99.90
40676;DHT22;26359;48.750;9.314;2022-10-23T10:05:40;20.70;99.90
40676;DHT22;26359;48.750;9.314;2022-10-23T10:08:35;20.70;99.90
40676;DHT22;26359;48.750;9.314;2022-10-23T10:11:29;20.70;99.90
40676;DHT22;26359;48.750;9.314;2022-10-23T10:14:22;20.60;99.90
40676;DHT22;26359;48.750;9.314;2022-10-23T10:22:37;20.60;99.90
40676;DHT22;26359;48.750;9.314;2022-10-23T10:28:03;20.40;99.90
40676;DHT22;26359;48.750;9.314;2022-10-23T10:30:45;20.10;99.90
40676;DHT22;26359;48.750;9.314;2022-10-23T10:33:17;19.90;99.90
40676;DHT22;26359;48.750;9.314;2022-10-23T10:41:05;20.30;99.90
40676;DHT22;26359;48.750;9.314;2022-10-23T10:43:50;20.40;99.90
40676;DHT22;26359;48.750;9.314;2022-10-23T10:49:33;20.70;99.90
40676;DHT22;26359;48.750;9.314;2022-10-23T10:52:12;20.80;99.90
40676;DHT22;26359;48.750;9.314;2022-10-23T10:54:55;20.80;99.90
40676;DHT22;26359;48.750;9.314;2022-10-23T10:57:39;20.80;99.90
40676;DHT22;26359;48.750;9.314;2022-10-23T11:00:18;20.70;99.90
40676;DHT22;26359;48.750;9.314;2022-10-23T11:02:56;20.70;99.90
40676;DHT22;26359;48.750;9.314;2022-10-23T11:05:40;20.60;99.90
40676;DHT22;26359;48.750;9.314;2022-10-23T11:08:17;20.50;99.90
40676;DHT22;26359;48.750;9.314;2022-10-23T11:10:51;20.50;99.90
40676;DHT22;26359;48.750;9.314;2022-10-23T11:13:35;20.50;99.90
40676;DHT22;26359;48.750;9.314;2022-10-23T11:18:42;20.40;99.90
40676;DHT22;26359;48.750;9.314;2022-10-23T11:27:01;20.20;99.90
40676;DHT22;26359;48.750;9.314;2022-10-23T11:37:39;19.70;99.90
40676;DHT22;26359;48.750;9.314;2022-10-23T11:48:17;19.40;99.90
40676;DHT22;26359;48.750;9.314;2022-10-23T11:56:02;19.30;99.90
40676;DHT22;26359;48.750;9.314;2022-10-23T11:58:41;19.20;99.90
40676;DHT22;26359;48.750;9.314;2022-10-23T12:06:48;19.30;99.90
40676;DHT22;26359;48.750;9.314;2022-10-23T12:09:25;19.30;99.90
40676;DHT22;26359;48.750;9.314;2022-10-23T12:19:52;19.60;99.90
40676;DHT22;26359;48.750;9.314;2022-10-23T12:22:19;19.60;99.90
40676;DHT22;26359;48.750;9.314;2022-10-23T12:25:10;19.70;99.90
40676;DHT22;26359;48.750;9.314;2022-10-23T12:28:01;19.80;99.90
40676;DHT22;26359;48.750;9.314;2022-10-23T12:30:41;19.80;99.90
40676;DHT22;26359;48.750;9.314;2022-10-23T12:38:47;19.80;99.90
40676;DHT22;26359;48.750;9.314;2022-10-23T12:41:30;19.80;99.90
40676;DHT22;26359;48.750;9.314;2022-10-23T12:44:03;19.90;99.90
40676;DHT22;26359;48.750;9.314;2022-10-23T12:46:49;20.00;99.90
40676;DHT22;26359;48.750;9.314;2022-10-23T12:49:20;20.00;99.90
40676;DHT22;26359;48.750;9.314;2022-10-23T12:54:24;20.10;99.90
40676;DHT22;26359;48.750;9.314;2022-10-23T12:56:50;20.30;99.90
40676;DHT22;26359;48.750;9.314;2022-10-23T12:59:29;20.40;99.90
40676;DHT22;26359;48.750;9.314;2022-10-23T13:01:57;20.60;99.90
40676;DHT22;26359;48.750;9.314;2022-10-23T13:04:33;20.80;99.90
40676;DHT22;26359;48.750;9.314;2022-10-23T13:07:01;21.10;99.90
40676;DHT22;26359;48.750;9.314;2022-10-23T13:09:37;21.30;99.90
40676;DHT22;26359;48.750;9.314;2022-10-23T13:12:04;21.50;99.90
40676;DHT22;26359;48.750;9.314;2022-10-23T13:14:34;21.70;99.90
40676;DHT22;26359;48.750;9.314;2022-10-23T13:17:08;21.90;99.90
40676;DHT22;26359;48.750;9.314;2022-10-23T13:19:35;22.00;99.90
40676;DHT22;26359;48.750;9.314;2022-10-23T13:22:17;22.00;99.90
40676;DHT22;26359;48.750;9.314;2022-10-23T13:24:44;22.30;99.90
40676;DHT22;26359;48.750;9.314;2022-10-23T13:29:54;22.50;99.90
40676;DHT22;26359;48.750;9.314;2022-10-23T13:32:23;22.60;99.90
40676;DHT22;26359;48.750;9.314;2022-10-23T13:34:52;22.50;99.90
40676;DHT22;26359;48.750;9.314;2022-10-23T13:37:27;22.40;99.90
40676;DHT22;26359;48.750;9.314;2022-10-23T13:40:00;22.10;99.90
40676;DHT22;26359;48.750;9.314;2022-10-23T13:42:26;22.00;99.90
40676;DHT22;26359;48.750;9.314;2022-10-23T13:44:52;21.90;99.90
40676;DHT22;26359;48.750;9.314;2022-10-23T13:47:17;21.90;99.90
40676;DHT22;26359;48.750;9.314;2022-10-23T13:49:43;21.70;99.90
40676;DHT22;26359;48.750;9.314;2022-10-23T13:52:11;21.70;99.90
40676;DHT22;26359;48.750;9.314;2022-10-23T13:54:37;21.70;99.90
40676;DHT22;26359;48.750;9.314;2022-10-23T13:57:03;21.60;99.90
40676;DHT22;26359;48.750;9.314;2022-10-23T13:59:28;21.50;99.90
40676;DHT22;26359;48.750;9.314;2022-10-23T14:01:54;21.50;99.90
40676;DHT22;26359;48.750;9.314;2022-10-23T14:04:20;21.40;99.90
40676;DHT22;26359;48.750;9.314;2022-10-23T14:06:45;21.30;99.90
40676;DHT22;26359;48.750;9.314;2022-10-23T14:09:16;21.20;99.90
40676;DHT22;26359;48.750;9.314;2022-10-23T14:11:43;21.10;99.90
40676;DHT22;26359;48.750;9.314;2022-10-23T14:14:08;21.00;99.90
40676;DHT22;26359;48.750;9.314;2022-10-23T14:16:34;20.90;99.90
40676;DHT22;26359;48.750;9.314;2022-10-23T14:18:59;20.90;99.90
40676;DHT22;26359;48.750;9.314;2022-10-23T14:21:25;20.80;99.90
40676;DHT22;26359;48.750;9.314;2022-10-23T14:23:52;20.70;99.90
40676;DHT22;26359;48.750;9.314;2022-10-23T14:26:21;20.60;99.90
40676;DHT22;26359;48.750;9.314;2022-10-23T14:28:47;20.50;99.90
40676;DHT22;26359;48.750;9.314;2022-10-23T14:31:17;20.50;99.90
40676;DHT22;26359;48.750;9.314;2022-10-23T14:33:44;20.40;99.90
40676;DHT22;26359;48.750;9.314;2022-10-23T14:36:10;20.40;99.90
40676;DHT22;26359;48.750;9.314;2022-10-23T14:38:36;20.30;99.90
40676;DHT22;26359;48.750;9.314;2022-10-23T14:41:02;20.20;99.90
40676;DHT22;26359;48.750;9.314;2022-10-23T14:43:33;20.20;99.90
40676;DHT22;26359;48.750;9.314;2022-10-23T14:46:20;20.20;99.90
40676;DHT22;26359;48.750;9.314;2022-10-23T14:48:46;20.10;99.90
40676;DHT22;26359;48.750;9.314;2022-10-23T14:51:20;20.00;99.90
40676;DHT22;26359;48.750;9.314;2022-10-23T14:53:47;20.00;99.90
40676;DHT22;26359;48.750;9.314;2022-10-23T14:56:13;20.00;99.90
40676;DHT22;26359;48.750;9.314;2022-10-23T14:58:39;20.00;99.90
40676;DHT22;26359;48.750;9.314;2022-10-23T15:01:06;19.90;99.90
40676;DHT22;26359;48.750;9.314;2022-10-23T15:03:31;19.80;99.90
40676;DHT22;26359;48.750;9.314;2022-10-23T15:05:57;19.80;99.90
40676;DHT22;26359;48.750;9.314;2022-10-23T15:08:23;19.70;99.90
40676;DHT22;26359;48.750;9.314;2022-10-23T15:10:49;19.70;99.90
40676;DHT22;26359;48.750;9.314;2022-10-23T15:13:14;19.70;99.90
40676;DHT22;26359;48.750;9.314;2022-10-23T15:15:40;19.70;99.90
40676;DHT22;26359;48.750;9.314;2022-10-23T15:18:06;19.70;99.90
40676;DHT22;26359;48.750;9.314;2022-10-23T15:20:31;19.60;99.90
40676;DHT22;26359;48.750;9.314;2022-10-23T15:22:57;19.70;99.90
40676;DHT22;26359;48.750;9.314;2022-10-23T15:25:23;19.60;99.90
40676;DHT22;26359;48.750;9.314;2022-10-23T15:27:48;19.60;99.90
40676;DHT22;26359;48.750;9.314;2022-10-23T15:30:14;19.60;99.90
40676;DHT22;26359;48.750;9.314;2022-10-23T15:32:40;19.60;99.90
40676;DHT22;26359;48.750;9.314;2022-10-23T15:35:06;19.60;99.90
40676;DHT22;26359;48.750;9.314;2022-10-23T15:37:31;19.60;99.90
40676;DHT22;26359;48.750;9.314;2022-10-23T15:39:57;19.50;99.90
40676;DHT22;26359;48.750;9.314;2022-10-23T15:42:23;19.50;99.90
40676;DHT22;26359;48.750;9.314;2022-10-23T15:44:49;19.50;99.90
40676;DHT22;26359;48.750;9.314;2022-10-23T15:47:15;19.50;99.90
40676;DHT22;26359;48.750;9.314;2022-10-23T15:49:40;19.50;99.90
40676;DHT22;26359;48.750;9.314;2022-10-23T15:52:06;19.50;99.90
40676;DHT22;26359;48.750;9.314;2022-10-23T15:54:33;19.50;99.90
40676;DHT22;26359;48.750;9.314;2022-10-23T15:56:59;19.50;99.90
40676;DHT22;26359;48.750;9.314;2022-10-23T15:59:26;19.40;99.90
40676;DHT22;26359;48.750;9.314;2022-10-23T16:01:52;19.30;99.90
40676;DHT22;26359;48.750;9.314;2022-10-23T16:04:19;19.20;99.90
40676;DHT22;26359;48.750;9.314;2022-10-23T16:06:45;19.20;99.90
40676;DHT22;26359;48.750;9.314;2022-10-23T16:09:11;19.20;99.90
40676;DHT22;26359;48.750;9.314;2022-10-23T16:11:38;19.10;99.90
40676;DHT22;26359;48.750;9.314;2022-10-23T16:14:05;19.10;99.90
40676;DHT22;26359;48.750;9.314;2022-10-23T16:16:32;19.10;99.90
40676;DHT22;26359;48.750;9.314;2022-10-23T16:18:59;19.00;99.90
40676;DHT22;26359;48.750;9.314;2022-10-23T16:21:27;19.00;99.90
40676;DHT22;26359;48.750;9.314;2022-10-23T16:23:55;19.00;99.90
40676;DHT22;26359;48.750;9.314;2022-10-23T16:26:21;18.90;99.90
40676;DHT22;26359;48.750;9.314;2022-10-23T16:28:52;18.90;99.90
40676;DHT22;26359;48.750;9.314;2022-10-23T16:31:18;18.80;99.90
40676;DHT22;26359;48.750;9.314;2022-10-23T16:33:45;18.80;99.90
40676;DHT22;26359;48.750;9.314;2022-10-23T16:36:10;18.80;99.90
40676;DHT22;26359;48.750;9.314;2022-10-23T16:38:37;18.80;99.90
40676;DHT22;26359;48.750;9.314;2022-10-23T16:41:04;18.80;99.90
40676;DHT22;26359;48.750;9.314;2022-10-23T16:43:30;18.80;99.90
40676;DHT22;26359;48.750;9.314;2022-10-23T16:48:32;18.80;99.90
40676;DHT22;26359;48.750;9.314;2022-10-23T16:50:57;18.80;99.90
40676;DHT22;26359;48.750;9.314;2022-10-23T16:53:23;18.70;99.90
40676;DHT22;26359;48.750;9.314;2022-10-23T16:55:56;18.70;99.90
40676;DHT22;26359;48.750;9.314;2022-10-23T16:58:23;18.70;99.90
40676;DHT22;26359;48.750;9.314;2022-10-23T17:01:00;18.50;99.90
40676;DHT22;26359;48.750;9.314;2022-10-23T17:03:27;18.50;99.90
40676;DHT22;26359;48.750;9.314;2022-10-23T17:05:53;18.50;99.90
40676;DHT22;26359;48.750;9.314;2022-10-23T17:08:23;18.50;99.90
40676;DHT22;26359;48.750;9.314;2022-10-23T17:10:48;18.50;99.90
40676;DHT22;26359;48.750;9.314;2022-10-23T17:13:14;18.50;99.90
40676;DHT22;26359;48.750;9.314;2022-10-23T17:15:39;18.50;99.90
40676;DHT22;26359;48.750;9.314;2022-10-23T17:18:05;18.50;99.90
40676;DHT22;26359;48.750;9.314;2022-10-23T17:20:30;18.50;99.90
40676;DHT22;26359;48.750;9.314;2022-10-23T17:22:56;18.50;99.90
40676;DHT22;26359;48.750;9.314;2022-10-23T17:25:21;18.40;99.90
40676;DHT22;26359;48.750;9.314;2022-10-23T17:27:47;18.40;99.90
40676;DHT22;26359;48.750;9.314;2022-10-23T17:30:12;18.30;99.90